sensor_id;sensor_type;location;lat;lon;timestamp;pressure;altitude;pressure_sealevel;temperature;humidity
7200;BME280;3641;49.082;8.200;2022-10-16T00:00:11;100146.28;;;15.07;100.00
7200;BME280;3641;49.082;8.200;2022-10-16T00:02:38;100152.19;;;15.11;100.00
7200;BME280;3641;49.082;8.200;2022-10-16T00:05:05;100145.22;;;15.08;100.00
7200;BME280;3641;49.082;8.200;2022-10-16T00:07:31;100142.53;;;14.95;100.00
7200;BME280;3641;49.082;8.200;2022-10-16T00:09:58;100139.50;;;15.10;100.00
7200;BME280;3641;49.082;8.200;2022-10-16T00:12:24;100130.63;;;15.07;100.00
7200;BME280;3641;49.082;8.200;2022-10-16T00:14:51;100128.47;;;15.16;100.00
7200;BME280;3641;49.082;8.200;2022-10-16T00:17:18;100122.41;;;15.01;100.00
7200;BME280;3641;49.082;8.200;2022-10-16T00:19:45;100130.84;;;15.13;100.00
7200;BME280;3641;49.082;8.200;2022-10-16T00:22:11;100124.25;;;15.14;100.00
7200;BME280;3641;49.082;8.200;2022-10-16T00:24:38;100140.47;;;15.22;100.00
7200;BME280;3641;49.082;8.200;2022-10-16T00:27:04;100137.94;;;15.20;100.00
7200;BME280;3641;49.082;8.200;2022-10-16T00:29:31;100149.69;;;15.02;100.00
7200;BME280;3641;49.082;8.200;2022-10-16T00:31:57;100146.59;;;14.92;100.00
7200;BME280;3641;49.082;8.200;2022-10-16T00:34:25;100134.47;;;15.06;100.00
7200;BME280;3641;49.082;8.200;2022-10-16T00:36:51;100121.06;;;15.17;100.00
7200;BME280;3641;49.082;8.200;2022-10-16T00:39:18;100129.09;;;15.18;100.00
7200;BME280;3641;49.082;8.200;2022-10-16T00:41:45;100140.31;;;15.17;100.00
7200;BME280;3641;49.082;8.200;2022-10-16T00:44:49;100137.81;;;15.08;100.00
7200;BME280;3641;49.082;8.200;2022-10-16T00:47:20;100137.00;;;15.08;100.00
7200;BME280;3641;49.082;8.200;2022-10-16T00:49:50;100134.19;;;15.15;100.00
7200;BME280;3641;49.082;8.200;2022-10-16T00:52:18;100129.09;;;15.18;100.00
7200;BME280;3641;49.082;8.200;2022-10-16T00:54:46;100138.13;;;14.94;100.00
7200;BME280;3641;49.082;8.200;2022-10-16T00:57:13;100135.50;;;15.05;100.00
7200;BME280;3641;49.082;8.200;2022-10-16T00:59:41;100149.41;;;15.17;100.00
7200;BME280;3641;49.082;8.200;2022-10-16T01:02:09;100138.13;;;14.94;100.00
7200;BME280;3641;49.082;8.200;2022-10-16T01:04:39;100146.81;;;14.91;100.00
7200;BME280;3641;49.082;8.200;2022-10-16T01:07:12;100157.28;;;15.07;100.00
7200;BME280;3641;49.082;8.200;2022-10-16T01:09:47;100153.88;;;15.12;100.00
7200;BME280;3641;49.082;8.200;2022-10-16T01:12:23;100152.63;;;15.07;100.00
7200;BME280;3641;49.082;8.200;2022-10-16T01:14:57;100158.22;;;14.87;100.00
7200;BME280;3641;49.082;8.200;2022-10-16T01:17:28;100150.63;;;14.83;100.00
7200;BME280;3641;49.082;8.200;2022-10-16T01:20:10;100146.84;;;14.84;100.00
7200;BME280;3641;49.082;8.200;2022-10-16T01:22:49;100134.84;;;14.71;100.00
7200;BME280;3641;49.082;8.200;2022-10-16T01:25:25;100139.22;;;14.86;100.00
7200;BME280;3641;49.082;8.200;2022-10-16T01:27:59;100142.13;;;14.91;100.00
7200;BME280;3641;49.082;8.200;2022-10-16T01:30:30;100144.44;;;14.94;100.00
7200;BME280;3641;49.082;8.200;2022-10-16T01:33:02;100136.81;;;14.96;100.00
7200;BME280;3641;49.082;8.200;2022-10-16T01:35:30;100141.63;;;15.07;100.00
7200;BME280;3641;49.082;8.200;2022-10-16T01:38:01;100127.69;;;15.02;100.00
7200;BME280;3641;49.082;8.200;2022-10-16T01:40:30;100137.88;;;15.02;100.00
7200;BME280;3641;49.082;8.200;2022-10-16T01:43:02;100139.09;;;15.06;100.00
7200;BME280;3641;49.082;8.200;2022-10-16T01:45:30;100144.44;;;14.94;100.00
7200;BME280;3641;49.082;8.200;2022-10-16T01:48:00;100142.75;;;14.93;100.00
7200;BME280;3641;49.082;8.200;2022-10-16T01:50:29;100137.03;;;14.95;100.00
7200;BME280;3641;49.082;8.200;2022-10-16T01:52:58;100137.88;;;15.02;100.00
7200;BME280;3641;49.082;8.200;2022-10-16T01:55:28;100138.53;;;14.97;100.00
7200;BME280;3641;49.082;8.200;2022-10-16T01:57:57;100142.25;;;15.10;100.00
7200;BME280;3641;49.082;8.200;2022-10-16T02:00:29;100153.66;;;15.13;100.00
7200;BME280;3641;49.082;8.200;2022-10-16T02:02:57;100141.38;;;15.16;100.00
7200;BME280;3641;49.082;8.200;2022-10-16T02:05:30;100147.72;;;15.16;100.00
7200;BME280;3641;49.082;8.200;2022-10-16T02:07:58;100154.06;;;15.17;100.00
7200;BME280;3641;49.082;8.200;2022-10-16T02:10:25;100162.31;;;15.17;100.00
7200;BME280;3641;49.082;8.200;2022-10-16T02:12:59;100158.94;;;15.15;100.00
7200;BME280;3641;49.082;8.200;2022-10-16T02:15:25;100163.38;;;15.16;100.00
7200;BME280;3641;49.082;8.200;2022-10-16T02:17:53;100164.66;;;15.13;100.00
7200;BME280;3641;49.082;8.200;2022-10-16T02:20:24;100161.91;;;15.13;100.00
7200;BME280;3641;49.082;8.200;2022-10-16T02:22:52;100165.50;;;15.14;100.00
7200;BME280;3641;49.082;8.200;2022-10-16T02:25:24;100166.13;;;15.16;100.00
7200;BME280;3641;49.082;8.200;2022-10-16T02:27:55;100159.16;;;15.13;100.00
7200;BME280;3641;49.082;8.200;2022-10-16T02:30:25;100163.38;;;15.16;100.00
7200;BME280;3641;49.082;8.200;2022-10-16T02:32:55;100161.25;;;15.18;100.00
7200;BME280;3641;49.082;8.200;2022-10-16T02:35:24;100162.53;;;15.15;100.00
7200;BME280;3641;49.082;8.200;2022-10-16T02:37:53;100165.50;;;15.14;100.00
7200;BME280;3641;49.082;8.200;2022-10-16T02:40:21;100154.28;;;15.15;100.00
7200;BME280;3641;49.082;8.200;2022-10-16T02:42:50;100169.75;;;15.10;100.00
7200;BME280;3641;49.082;8.200;2022-10-16T02:45:17;100167.00;;;15.10;100.00
7200;BME280;3641;49.082;8.200;2022-10-16T02:47:43;100175.47;;;15.08;100.00
7200;BME280;3641;49.082;8.200;2022-10-16T02:50:11;100171.97;;;14.87;100.00
7200;BME280;3641;49.082;8.200;2022-10-16T02:52:38;100175.72;;;15.00;100.00
7200;BME280;3641;49.082;8.200;2022-10-16T02:55:05;100175.53;;;14.95;100.00
7200;BME280;3641;49.082;8.200;2022-10-16T02:57:32;100179.94;;;15.02;100.00
7200;BME280;3641;49.082;8.200;2022-10-16T02:59:58;100178.66;;;15.05;100.00
7200;BME280;3641;49.082;8.200;2022-10-16T03:02:25;100183.94;;;15.06;100.00
7200;BME280;3641;49.082;8.200;2022-10-16T03:04:51;100183.75;;;15.01;100.00
7200;BME280;3641;49.082;8.200;2022-10-16T03:07:19;100189.00;;;15.03;100.00
7200;BME280;3641;49.082;8.200;2022-10-16T03:09:45;100180.59;;;14.98;100.00
7200;BME280;3641;49.082;8.200;2022-10-16T03:12:12;100180.31;;;15.06;100.00
7200;BME280;3641;49.082;8.200;2022-10-16T03:14:39;100170.19;;;15.06;100.00
7200;BME280;3641;49.082;8.200;2022-10-16T03:17:06;100168.06;;;15.08;100.00
7200;BME280;3641;49.082;8.200;2022-10-16T03:19:32;100170.59;;;15.10;100.00
7200;BME280;3641;49.082;8.200;2022-10-16T03:21:58;100165.31;;;15.08;100.00
7200;BME280;3641;49.082;8.200;2022-10-16T03:24:26;100162.56;;;15.08;100.00
7200;BME280;3641;49.082;8.200;2022-10-16T03:26:53;100172.94;;;15.06;100.00
7200;BME280;3641;49.082;8.200;2022-10-16T03:29:19;100168.56;;;14.92;100.00
7200;BME280;3641;49.082;8.200;2022-10-16T03:31:46;100167.91;;;14.97;100.00
7200;BME280;3641;49.082;8.200;2022-10-16T03:34:13;100172.50;;;15.03;100.00
7200;BME280;3641;49.082;8.200;2022-10-16T03:36:40;100168.34;;;14.87;100.00
7200;BME280;3641;49.082;8.200;2022-10-16T03:39:06;100181.22;;;14.93;100.00
7200;BME280;3641;49.082;8.200;2022-10-16T03:41:34;100170.47;;;14.92;100.00
7200;BME280;3641;49.082;8.200;2022-10-16T03:44:01;100175.19;;;14.78;100.00
7200;BME280;3641;49.082;8.200;2022-10-16T03:46:27;100175.56;;;14.88;100.00
7200;BME280;3641;49.082;8.200;2022-10-16T03:48:54;100176.84;;;14.85;100.00
7200;BME280;3641;49.082;8.200;2022-10-16T03:51:21;100173.03;;;14.86;100.00
7200;BME280;3641;49.082;8.200;2022-10-16T03:53:47;100189.03;;;14.96;100.00
7200;BME280;3641;49.082;8.200;2022-10-16T03:56:14;100189.72;;;14.85;100.00
7200;BME280;3641;49.082;8.200;2022-10-16T03:58:41;100179.13;;;14.95;100.00
7200;BME280;3641;49.082;8.200;2022-10-16T04:01:08;100184.41;;;14.97;100.00
7200;BME280;3641;49.082;8.200;2022-10-16T04:03:34;100183.97;;;15.00;100.00
7200;BME280;3641;49.082;8.200;2022-10-16T04:06:01;100184.59;;;15.02;100.00
7200;BME280;3641;49.082;8.200;2022-10-16T04:08:27;100179.97;;;14.96;100.00
7200;BME280;3641;49.082;8.200;2022-10-16T04:10:54;100186.72;;;14.93;100.00
7200;BME280;3641;49.082;8.200;2022-10-16T04:13:20;100193.09;;;14.87;100.00
7200;BME280;3641;49.082;8.200;2022-10-16T04:15:48;100190.81;;;14.84;100.00
7200;BME280;3641;49.082;8.200;2022-10-16T04:18:14;100194.00;;;14.81;100.00
7200;BME280;3641;49.082;8.200;2022-10-16T04:20:41;100198.84;;;14.79;100.00
7200;BME280;3641;49.082;8.200;2022-10-16T04:23:07;100207.78;;;14.61;100.00
7200;BME280;3641;49.082;8.200;2022-10-16T04:25:34;100212.56;;;14.79;100.00
7200;BME280;3641;49.082;8.200;2022-10-16T04:28:00;100200.69;;;14.92;100.00
7200;BME280;3641;49.082;8.200;2022-10-16T04:30:27;100198.59;;;14.94;100.00
7200;BME280;3641;49.082;8.200;2022-10-16T04:32:55;100200.69;;;14.98;100.00
7200;BME280;3641;49.082;8.200;2022-10-16T04:35:21;100202.38;;;14.93;100.00
7200;BME280;3641;49.082;8.200;2022-10-16T04:37:48;100200.03;;;14.96;100.00
7200;BME280;3641;49.082;8.200;2022-10-16T04:40:16;100204.72;;;14.96;100.00
7200;BME280;3641;49.082;8.200;2022-10-16T04:42:43;100205.09;;;14.99;100.00
7200;BME280;3641;49.082;8.200;2022-10-16T04:45:09;100203.00;;;15.01;100.00
7200;BME280;3641;49.082;8.200;2022-10-16T04:47:36;100206.81;;;15.00;100.00
7200;BME280;3641;49.082;8.200;2022-10-16T04:50:05;100216.75;;;15.01;100.00
7200;BME280;3641;49.082;8.200;2022-10-16T04:52:32;100216.97;;;14.93;100.00
7200;BME280;3641;49.082;8.200;2022-10-16T04:54:58;100216.38;;;14.84;100.00
7200;BME280;3641;49.082;8.200;2022-10-16T04:57:28;100219.78;;;14.80;100.00
7200;BME280;3641;49.082;8.200;2022-10-16T04:59:54;100211.25;;;14.95;100.00
7200;BME280;3641;49.082;8.200;2022-10-16T05:02:20;100223.13;;;14.95;100.00
7200;BME280;3641;49.082;8.200;2022-10-16T05:04:47;100218.63;;;15.01;100.00
7200;BME280;3641;49.082;8.200;2022-10-16T05:07:15;100217.41;;;14.97;100.00
7200;BME280;3641;49.082;8.200;2022-10-16T05:09:41;100223.28;;;15.00;100.00
7200;BME280;3641;49.082;8.200;2022-10-16T05:12:08;100229.88;;;14.93;100.00
7200;BME280;3641;49.082;8.200;2022-10-16T05:14:34;100220.75;;;14.99;100.00
7200;BME280;3641;49.082;8.200;2022-10-16T05:17:01;100237.31;;;14.79;100.00
7200;BME280;3641;49.082;8.200;2022-10-16T05:19:27;100240.09;;;14.72;100.00
7200;BME280;3641;49.082;8.200;2022-10-16T05:21:54;100227.63;;;14.63;100.00
7200;BME280;3641;49.082;8.200;2022-10-16T05:24:21;100224.44;;;14.73;100.00
7200;BME280;3641;49.082;8.200;2022-10-16T05:26:48;100218.53;;;14.69;100.00
7200;BME280;3641;49.082;8.200;2022-10-16T05:29:14;100233.50;;;14.86;100.00
7200;BME280;3641;49.082;8.200;2022-10-16T05:31:41;100229.72;;;14.81;100.00
7200;BME280;3641;49.082;8.200;2022-10-16T05:34:07;100238.81;;;14.75;100.00
7200;BME280;3641;49.082;8.200;2022-10-16T05:36:34;100243.22;;;14.89;100.00
7200;BME280;3641;49.082;8.200;2022-10-16T05:39:00;100245.31;;;14.94;100.00
7200;BME280;3641;49.082;8.200;2022-10-16T05:41:28;100243.22;;;14.89;100.00
7200;BME280;3641;49.082;8.200;2022-10-16T05:43:55;100239.81;;;14.94;100.00
7200;BME280;3641;49.082;8.200;2022-10-16T05:46:21;100225.66;;;14.97;100.00
7200;BME280;3641;49.082;8.200;2022-10-16T05:48:48;100221.63;;;14.93;100.00
7200;BME280;3641;49.082;8.200;2022-10-16T05:51:14;100215.88;;;15.01;100.00
7200;BME280;3641;49.082;8.200;2022-10-16T05:53:41;100218.63;;;15.01;100.00
7200;BME280;3641;49.082;8.200;2022-10-16T05:56:10;100236.44;;;14.85;100.00
7200;BME280;3641;49.082;8.200;2022-10-16T05:58:40;100229.50;;;14.82;100.00
7200;BME280;3641;49.082;8.200;2022-10-16T06:01:10;100245.56;;;14.85;100.00
7200;BME280;3641;49.082;8.200;2022-10-16T06:03:37;100257.38;;;14.93;100.00
7200;BME280;3641;49.082;8.200;2022-10-16T06:06:10;100251.47;;;14.76;100.00
7200;BME280;3641;49.082;8.200;2022-10-16T06:08:38;100253.19;;;14.77;100.00
7200;BME280;3641;49.082;8.200;2022-10-16T06:11:07;100245.09;;;14.88;100.00
7200;BME280;3641;49.082;8.200;2022-10-16T06:13:34;100241.31;;;14.89;100.00
7200;BME280;3641;49.082;8.200;2022-10-16T06:16:03;100243.63;;;14.93;100.00
7200;BME280;3641;49.082;8.200;2022-10-16T06:18:29;100245.31;;;14.94;100.00
7200;BME280;3641;49.082;8.200;2022-10-16T06:20:56;100252.06;;;14.91;100.00
7200;BME280;3641;49.082;8.200;2022-10-16T06:23:23;100256.53;;;14.92;100.00
7200;BME280;3641;49.082;8.200;2022-10-16T06:25:50;100250.19;;;14.85;100.00
7200;BME280;3641;49.082;8.200;2022-10-16T06:28:17;100255.47;;;14.86;100.00
7200;BME280;3641;49.082;8.200;2022-10-16T06:30:43;100257.56;;;14.91;100.00
7200;BME280;3641;49.082;8.200;2022-10-16T06:33:12;100258.63;;;14.90;100.00
7200;BME280;3641;49.082;8.200;2022-10-16T06:35:39;100251.06;;;14.85;100.00
7200;BME280;3641;49.082;8.200;2022-10-16T06:38:05;100262.03;;;14.92;100.00
7200;BME280;3641;49.082;8.200;2022-10-16T06:40:32;100269.44;;;14.85;100.00
7200;BME280;3641;49.082;8.200;2022-10-16T06:42:58;100275.41;;;14.68;100.00
7200;BME280;3641;49.082;8.200;2022-10-16T06:45:25;100274.09;;;14.58;100.00
7200;BME280;3641;49.082;8.200;2022-10-16T06:47:51;100276.84;;;14.58;100.00
7200;BME280;3641;49.082;8.200;2022-10-16T06:50:19;100278.13;;;14.75;100.00
7200;BME280;3641;49.082;8.200;2022-10-16T06:52:45;100278.75;;;14.70;100.00
7200;BME280;3641;49.082;8.200;2022-10-16T06:55:12;100284.47;;;14.69;100.00
7200;BME280;3641;49.082;8.200;2022-10-16T06:57:39;100280.84;;;14.82;100.00
7200;BME280;3641;49.082;8.200;2022-10-16T07:00:07;100289.75;;;14.84;100.00
7200;BME280;3641;49.082;8.200;2022-10-16T07:02:33;100282.75;;;14.81;100.00
7200;BME280;3641;49.082;8.200;2022-10-16T07:05:00;100293.56;;;14.76;100.00
7200;BME280;3641;49.082;8.200;2022-10-16T07:07:28;100311.75;;;14.64;100.00
7200;BME280;3641;49.082;8.200;2022-10-16T07:09:54;100313.84;;;14.68;100.00
7200;BME280;3641;49.082;8.200;2022-10-16T07:12:21;100315.34;;;14.71;100.00
7200;BME280;3641;49.082;8.200;2022-10-16T07:14:47;100318.28;;;14.56;100.00
7200;BME280;3641;49.082;8.200;2022-10-16T07:17:13;100315.53;;;14.43;100.00
7200;BME280;3641;49.082;8.200;2022-10-16T07:19:40;100327.34;;;14.57;100.00
7200;BME280;3641;49.082;8.200;2022-10-16T07:22:06;100333.28;;;14.53;100.00
7200;BME280;3641;49.082;8.200;2022-10-16T07:24:34;100341.28;;;14.48;100.00
7200;BME280;3641;49.082;8.200;2022-10-16T07:27:01;100344.28;;;14.53;100.00
7200;BME280;3641;49.082;8.200;2022-10-16T07:29:27;100339.41;;;14.49;100.00
7200;BME280;3641;49.082;8.200;2022-10-16T07:31:54;100337.72;;;14.48;100.00
7200;BME280;3641;49.082;8.200;2022-10-16T07:34:20;100336.25;;;14.52;100.00
7200;BME280;3641;49.082;8.200;2022-10-16T07:36:48;100344.31;;;14.60;100.00
7200;BME280;3641;49.082;8.200;2022-10-16T07:39:14;100349.78;;;14.74;100.00
7200;BME280;3641;49.082;8.200;2022-10-16T07:41:42;100355.06;;;14.68;100.00
7200;BME280;3641;49.082;8.200;2022-10-16T07:44:09;100349.78;;;14.74;100.00
7200;BME280;3641;49.082;8.200;2022-10-16T07:46:35;100351.25;;;14.63;100.00
7200;BME280;3641;49.082;8.200;2022-10-16T07:49:02;100356.75;;;14.63;100.00
7200;BME280;3641;49.082;8.200;2022-10-16T07:51:29;100359.94;;;14.66;100.00
7200;BME280;3641;49.082;8.200;2022-10-16T07:53:56;100366.06;;;14.68;100.00
7200;BME280;3641;49.082;8.200;2022-10-16T07:56:22;100358.44;;;14.84;100.00
7200;BME280;3641;49.082;8.200;2022-10-16T07:58:51;100357.59;;;14.77;100.00
7200;BME280;3641;49.082;8.200;2022-10-16T08:01:18;100362.03;;;14.84;100.00
7200;BME280;3641;49.082;8.200;2022-10-16T08:03:47;100357.38;;;14.78;100.00
7200;BME280;3641;49.082;8.200;2022-10-16T08:06:14;100363.09;;;14.83;100.00
7200;BME280;3641;49.082;8.200;2022-10-16T08:08:41;100364.78;;;14.84;100.00
7200;BME280;3641;49.082;8.200;2022-10-16T08:11:07;100370.47;;;14.89;100.00
7200;BME280;3641;49.082;8.200;2022-10-16T08:13:34;100362.44;;;14.95;100.00
7200;BME280;3641;49.082;8.200;2022-10-16T08:16:02;100372.56;;;15.01;100.00
7200;BME280;3641;49.082;8.200;2022-10-16T08:18:33;100377.63;;;15.11;100.00
7200;BME280;3641;49.082;8.200;2022-10-16T08:20:59;100374.88;;;15.11;100.00
7200;BME280;3641;49.082;8.200;2022-10-16T08:23:27;100377.00;;;15.08;100.00
7200;BME280;3641;49.082;8.200;2022-10-16T08:25:54;100381.03;;;15.13;100.00
7200;BME280;3641;49.082;8.200;2022-10-16T08:28:21;100390.53;;;15.17;100.00
7200;BME280;3641;49.082;8.200;2022-10-16T08:30:48;100390.72;;;15.29;100.00
7200;BME280;3641;49.082;8.200;2022-10-16T08:33:16;100390.50;;;15.30;100.00
7200;BME280;3641;49.082;8.200;2022-10-16T08:35:43;100399.56;;;15.37;100.00
7200;BME280;3641;49.082;8.200;2022-10-16T08:38:16;100407.19;;;15.42;100.00
7200;BME280;3641;49.082;8.200;2022-10-16T08:40:42;100411.84;;;15.41;100.00
7200;BME280;3641;49.082;8.200;2022-10-16T08:43:21;100409.09;;;15.41;100.00
7200;BME280;3641;49.082;8.200;2022-10-16T08:46:09;100410.56;;;15.44;100.00
7200;BME280;3641;49.082;8.200;2022-10-16T08:48:46;100417.53;;;15.47;100.00
7200;BME280;3641;49.082;8.200;2022-10-16T08:51:19;100427.91;;;15.51;100.00
7200;BME280;3641;49.082;8.200;2022-10-16T08:53:49;100431.69;;;15.50;100.00
7200;BME280;3641;49.082;8.200;2022-10-16T08:56:17;100435.72;;;15.54;100.00
7200;BME280;3641;49.082;8.200;2022-10-16T08:58:45;100443.75;;;15.62;100.00
7200;BME280;3641;49.082;8.200;2022-10-16T09:01:13;100448.59;;;15.67;100.00
7200;BME280;3641;49.082;8.200;2022-10-16T09:03:54;100453.25;;;15.73;100.00
7200;BME280;3641;49.082;8.200;2022-10-16T09:06:42;100453.00;;;15.68;100.00
7200;BME280;3641;49.082;8.200;2022-10-16T09:09:32;100457.91;;;15.66;100.00
7200;BME280;3641;49.082;8.200;2022-10-16T09:12:07;100456.81;;;15.74;100.00
7200;BME280;3641;49.082;8.200;2022-10-16T09:14:42;100460.66;;;15.79;100.00
7200;BME280;3641;49.082;8.200;2022-10-16T09:17:23;100462.13;;;15.82;100.00
7200;BME280;3641;49.082;8.200;2022-10-16T09:20:03;100465.06;;;15.87;100.00
7200;BME280;3641;49.082;8.200;2022-10-16T09:22:36;100458.97;;;15.78;100.00
7200;BME280;3641;49.082;8.200;2022-10-16T09:25:11;100461.25;;;15.88;100.00
7200;BME280;3641;49.082;8.200;2022-10-16T09:27:37;100462.69;;;15.97;100.00
7200;BME280;3641;49.082;8.200;2022-10-16T09:30:11;100466.25;;;16.05;100.00
7200;BME280;3641;49.082;8.200;2022-10-16T09:32:38;100475.56;;;16.10;100.00
7200;BME280;3641;49.082;8.200;2022-10-16T09:35:13;100472.59;;;16.12;100.00
7200;BME280;3641;49.082;8.200;2022-10-16T09:37:42;100476.78;;;16.14;100.00
7200;BME280;3641;49.082;8.200;2022-10-16T09:40:12;100483.75;;;16.24;100.00
7200;BME280;3641;49.082;8.200;2022-10-16T09:42:39;100487.31;;;16.69;100.00
7200;BME280;3641;49.082;8.200;2022-10-16T09:45:20;100489.44;;;17.24;98.00
7200;BME280;3641;49.082;8.200;2022-10-16T09:47:48;100489.94;;;18.02;95.56
7200;BME280;3641;49.082;8.200;2022-10-16T09:50:23;100490.16;;;18.01;91.34
7200;BME280;3641;49.082;8.200;2022-10-16T09:53:02;100490.31;;;17.87;92.54
7200;BME280;3641;49.082;8.200;2022-10-16T09:55:29;100495.00;;;18.24;92.89
7200;BME280;3641;49.082;8.200;2022-10-16T09:57:55;100484.44;;;18.32;90.94
7200;BME280;3641;49.082;8.200;2022-10-16T10:00:23;100485.72;;;18.48;88.56
7200;BME280;3641;49.082;8.200;2022-10-16T10:02:50;100484.25;;;18.76;89.00
7200;BME280;3641;49.082;8.200;2022-10-16T10:05:19;100484.75;;;18.73;86.07
7200;BME280;3641;49.082;8.200;2022-10-16T10:07:54;100493.34;;;18.65;86.09
7200;BME280;3641;49.082;8.200;2022-10-16T10:10:23;100484.88;;;18.78;84.94
7200;BME280;3641;49.082;8.200;2022-10-16T10:12:50;100485.44;;;18.68;90.84
7200;BME280;3641;49.082;8.200;2022-10-16T10:15:17;100487.09;;;18.88;90.70
7200;BME280;3641;49.082;8.200;2022-10-16T10:17:48;100495.47;;;18.81;89.61
7200;BME280;3641;49.082;8.200;2022-10-16T10:20:22;100491.38;;;18.84;92.64
7200;BME280;3641;49.082;8.200;2022-10-16T10:22:51;100493.38;;;19.07;91.95
7200;BME280;3641;49.082;8.200;2022-10-16T10:25:35;100495.84;;;18.85;92.15
7200;BME280;3641;49.082;8.200;2022-10-16T10:28:34;100482.66;;;18.99;89.75
7200;BME280;3641;49.082;8.200;2022-10-16T10:31:08;100481.22;;;19.32;85.09
7200;BME280;3641;49.082;8.200;2022-10-16T10:33:42;100477.16;;;19.34;85.14
7200;BME280;3641;49.082;8.200;2022-10-16T10:36:16;100486.88;;;19.60;80.86
7200;BME280;3641;49.082;8.200;2022-10-16T10:38:50;100484.25;;;19.30;87.32
7200;BME280;3641;49.082;8.200;2022-10-16T10:41:30;100487.25;;;19.64;79.18
7200;BME280;3641;49.082;8.200;2022-10-16T10:44:08;100492.53;;;19.89;78.77
7200;BME280;3641;49.082;8.200;2022-10-16T10:46:41;100490.16;;;19.46;82.74
7200;BME280;3641;49.082;8.200;2022-10-16T10:49:32;100497.47;;;19.28;86.06
7200;BME280;3641;49.082;8.200;2022-10-16T10:52:08;100504.94;;;19.39;78.86
7200;BME280;3641;49.082;8.200;2022-10-16T10:54:47;100511.44;;;19.33;80.72
7200;BME280;3641;49.082;8.200;2022-10-16T10:57:22;100502.91;;;19.23;79.64
7200;BME280;3641;49.082;8.200;2022-10-16T11:00:03;100503.09;;;19.10;80.41
7200;BME280;3641;49.082;8.200;2022-10-16T11:02:35;100495.63;;;18.98;80.28
7200;BME280;3641;49.082;8.200;2022-10-16T11:05:23;100494.91;;;18.91;81.23
7200;BME280;3641;49.082;8.200;2022-10-16T11:07:57;100494.16;;;18.84;83.35
7200;BME280;3641;49.082;8.200;2022-10-16T11:10:27;100500.56;;;18.84;82.46
7200;BME280;3641;49.082;8.200;2022-10-16T11:12:59;100493.75;;;18.80;83.52
7200;BME280;3641;49.082;8.200;2022-10-16T11:15:31;100494.81;;;18.79;83.92
7200;BME280;3641;49.082;8.200;2022-10-16T11:18:04;100499.63;;;18.72;88.58
7200;BME280;3641;49.082;8.200;2022-10-16T11:20:34;100491.09;;;18.74;87.43
7200;BME280;3641;49.082;8.200;2022-10-16T11:23:08;100485.47;;;18.80;83.18
7200;BME280;3641;49.082;8.200;2022-10-16T11:25:39;100480.50;;;18.70;85.67
7200;BME280;3641;49.082;8.200;2022-10-16T11:28:10;100480.75;;;18.69;84.96
7200;BME280;3641;49.082;8.200;2022-10-16T11:30:41;100474.47;;;18.62;86.04
7200;BME280;3641;49.082;8.200;2022-10-16T11:33:23;100480.63;;;18.76;83.39
7200;BME280;3641;49.082;8.200;2022-10-16T11:35:55;100476.91;;;18.70;84.31
7200;BME280;3641;49.082;8.200;2022-10-16T11:38:29;100475.94;;;18.76;84.07
7200;BME280;3641;49.082;8.200;2022-10-16T11:41:02;100470.97;;;18.85;82.32
7200;BME280;3641;49.082;8.200;2022-10-16T11:43:32;100465.44;;;18.85;82.36
7200;BME280;3641;49.082;8.200;2022-10-16T11:46:04;100470.38;;;18.95;81.71
7200;BME280;3641;49.082;8.200;2022-10-16T11:48:39;100474.59;;;18.97;84.52
7200;BME280;3641;49.082;8.200;2022-10-16T11:51:12;100476.13;;;18.93;82.28
7200;BME280;3641;49.082;8.200;2022-10-16T11:53:45;100476.75;;;18.95;85.15
7200;BME280;3641;49.082;8.200;2022-10-16T11:56:15;100474.22;;;18.94;80.81
7200;BME280;3641;49.082;8.200;2022-10-16T11:58:53;100463.06;;;19.00;82.55
7200;BME280;3641;49.082;8.200;2022-10-16T12:01:28;100467.97;;;18.86;84.75
7200;BME280;3641;49.082;8.200;2022-10-16T12:04:04;100471.84;;;18.97;82.57
7200;BME280;3641;49.082;8.200;2022-10-16T12:06:35;100470.59;;;18.93;83.34
7200;BME280;3641;49.082;8.200;2022-10-16T12:09:03;100478.41;;;18.84;85.85
7200;BME280;3641;49.082;8.200;2022-10-16T12:11:35;100476.50;;;18.97;84.10
7200;BME280;3641;49.082;8.200;2022-10-16T12:14:07;100475.66;;;18.96;83.63
7200;BME280;3641;49.082;8.200;2022-10-16T12:16:51;100474.25;;;19.05;86.60
7200;BME280;3641;49.082;8.200;2022-10-16T12:19:19;100468.94;;;19.04;82.54
7200;BME280;3641;49.082;8.200;2022-10-16T12:21:46;100465.34;;;19.15;81.53
7200;BME280;3641;49.082;8.200;2022-10-16T12:24:33;100472.34;;;19.18;80.13
7200;BME280;3641;49.082;8.200;2022-10-16T12:27:02;100463.19;;;19.05;84.18
7200;BME280;3641;49.082;8.200;2022-10-16T12:29:35;100462.06;;;19.06;80.86
7200;BME280;3641;49.082;8.200;2022-10-16T12:32:04;100456.53;;;18.95;84.94
7200;BME280;3641;49.082;8.200;2022-10-16T12:34:37;100461.59;;;19.10;81.19
7200;BME280;3641;49.082;8.200;2022-10-16T12:37:20;100460.13;;;18.95;87.39
7200;BME280;3641;49.082;8.200;2022-10-16T12:39:49;100463.88;;;19.01;82.14
7200;BME280;3641;49.082;8.200;2022-10-16T12:42:23;100465.31;;;18.92;83.15
7200;BME280;3641;49.082;8.200;2022-10-16T12:44:50;100459.91;;;18.97;82.91
7200;BME280;3641;49.082;8.200;2022-10-16T12:47:22;100465.91;;;18.94;80.88
7200;BME280;3641;49.082;8.200;2022-10-16T12:49:51;100463.03;;;18.88;81.76
7200;BME280;3641;49.082;8.200;2022-10-16T12:52:26;100467.34;;;18.84;83.56
7200;BME280;3641;49.082;8.200;2022-10-16T12:54:56;100470.91;;;18.73;85.52
7200;BME280;3641;49.082;8.200;2022-10-16T12:57:35;100471.75;;;18.74;82.97
7200;BME280;3641;49.082;8.200;2022-10-16T13:00:13;100472.44;;;18.69;89.46
7200;BME280;3641;49.082;8.200;2022-10-16T13:05:41;100480.63;;;18.64;84.52
7200;BME280;3641;49.082;8.200;2022-10-16T13:08:29;100482.63;;;18.57;89.25
7200;BME280;3641;49.082;8.200;2022-10-16T13:11:08;100486.09;;;18.52;91.30
7200;BME280;3641;49.082;8.200;2022-10-16T13:13:53;100481.25;;;18.47;91.78
7200;BME280;3641;49.082;8.200;2022-10-16T13:16:29;100483.06;;;18.42;92.06
7200;BME280;3641;49.082;8.200;2022-10-16T13:19:08;100482.06;;;18.36;92.61